Time;durP1;ratioP1;P1;durP2;ratioP2;P2;SDS_P1;SDS_P2;PMS_P1;PMS_P2;Temp;Humidity;BMP_temperature;BMP_pressure;BME280_temperature;BME280_humidity;BME280_pressure;Samples;Min_cycle;Max_cycle;Signal;HPM_P1;HPM_P2
2023/08/04 00:00:44;;;;;;;6.35;5.32;;;;;;;28.20;48.02;99096.56;3154059;28;20045;-68
2023/08/04 00:02:15;;;;;;;8.38;5.40;;;;;;;28.21;48.42;99102.75;3153968;28;20125;-67
2023/08/04 00:03:47;;;;;;;11.45;5.70;;;;;;;28.19;48.46;99094.94;3159003;28;20139;-67
2023/08/04 00:05:17;;;;;;;8.43;6.07;;;;;;;28.17;48.75;99101.50;3159548;28;20048;-67
2023/08/04 00:06:49;;;;;;;7.20;5.55;;;;;;;28.11;48.65;99097.78;3154585;28;20054;-67
2023/08/04 00:08:21;;;;;;;15.05;6.05;;;;;;;28.10;48.85;99104.13;3150507;28;20053;-66
2023/08/04 00:09:53;;;;;;;7.63;5.72;;;;;;;28.06;48.70;99102.91;3146991;28;20040;-67
2023/08/04 00:11:24;;;;;;;8.23;5.38;;;;;;;28.04;49.30;99100.44;3159158;28;20044;-67
2023/08/04 00:12:56;;;;;;;7.70;5.80;;;;;;;28.03;49.25;99098.75;3158939;28;20105;-67
2023/08/04 00:14:27;;;;;;;7.40;5.82;;;;;;;28.02;48.74;99107.84;3159266;28;20086;-67
2023/08/04 00:16:05;;;;;;;7.72;5.55;;;;;;;28.00;49.29;99103.69;3156567;28;20101;-64
2023/08/04 00:17:38;;;;;;;8.57;5.85;;;;;;;27.96;49.08;99105.94;3159185;28;20722;-65
2023/08/04 00:19:10;;;;;;;9.73;5.80;;;;;;;27.97;49.35;99104.09;3158729;28;20055;-65
2023/08/04 00:20:41;;;;;;;8.85;5.60;;;;;;;27.92;49.54;99104.69;3137352;28;20411;-66
2023/08/04 00:22:13;;;;;;;15.95;5.82;;;;;;;27.89;49.64;99102.41;3157900;28;20109;-67
2023/08/04 00:23:45;;;;;;;12.48;5.57;;;;;;;27.89;49.23;99099.72;3152253;28;20097;-67
2023/08/04 00:25:17;;;;;;;11.45;5.32;;;;;;;27.87;49.75;99101.78;3159031;28;20121;-66
2023/08/04 00:26:48;;;;;;;8.63;6.28;;;;;;;27.85;49.76;99095.81;3158491;28;20055;-67
2023/08/04 00:28:20;;;;;;;7.40;5.47;;;;;;;27.82;49.39;99102.38;3157772;28;20205;-67
2023/08/04 00:29:50;;;;;;;9.50;6.15;;;;;;;27.78;49.78;99101.13;3158796;28;20067;-66
2023/08/04 00:31:22;;;;;;;9.55;5.25;;;;;;;27.76;49.71;99094.28;3158717;28;20115;-66
2023/08/04 00:32:53;;;;;;;6.95;5.50;;;;;;;27.74;50.05;99099.81;3158712;28;20441;-67
2023/08/04 00:34:25;;;;;;;13.65;6.20;;;;;;;27.75;50.00;99101.50;3155972;28;20050;-67
2023/08/04 00:35:56;;;;;;;8.85;5.78;;;;;;;27.76;50.00;99099.63;3146229;28;20059;-66
2023/08/04 00:37:30;;;;;;;16.05;5.63;;;;;;;27.74;49.72;99104.34;3149860;28;20043;-66
2023/08/04 00:39:03;;;;;;;8.90;5.72;;;;;;;27.72;49.95;99093.03;3145052;28;20046;-66
2023/08/04 00:40:36;;;;;;;12.43;6.45;;;;;;;27.71;49.83;99099.41;3158596;28;20086;-66
2023/08/04 00:42:07;;;;;;;9.40;6.28;;;;;;;27.66;50.21;99098.16;3158609;28;20047;-66
2023/08/04 00:43:39;;;;;;;9.57;6.30;;;;;;;27.66;49.88;99094.66;3153444;28;20145;-67
2023/08/04 00:45:10;;;;;;;11.90;6.25;;;;;;;27.65;50.27;99101.81;3158617;28;20048;-67
2023/08/04 00:46:42;;;;;;;10.23;6.13;;;;;;;27.65;49.85;99101.00;3138626;28;20199;-66
2023/08/04 00:48:13;;;;;;;8.05;6.30;;;;;;;27.63;50.08;99103.06;3157983;28;20048;-66
2023/08/04 00:49:47;;;;;;;7.25;5.55;;;;;;;27.59;50.44;99096.44;3155953;28;20131;-66
2023/08/04 00:51:18;;;;;;;13.13;5.65;;;;;;;27.58;50.38;99105.50;3156346;28;20147;-66
2023/08/04 00:52:51;;;;;;;6.63;5.60;;;;;;;27.56;50.20;99100.34;3155759;28;20048;-66
2023/08/04 00:54:23;;;;;;;8.55;5.63;;;;;;;27.54;50.50;99105.06;3142770;28;20110;-66
2023/08/04 00:55:55;;;;;;;10.70;5.70;;;;;;;27.53;50.32;99099.91;3155561;28;20047;-65
2023/08/04 00:57:26;;;;;;;8.68;6.10;;;;;;;27.53;50.38;99102.56;3158405;28;20044;-66
2023/08/04 00:58:59;;;;;;;10.82;6.18;;;;;;;27.55;50.25;99101.38;3158658;28;20052;-66
2023/08/04 01:00:30;;;;;;;10.00;5.80;;;;;;;27.54;50.42;99106.91;3155195;28;20040;-67
2023/08/04 01:02:01;;;;;;;10.25;6.00;;;;;;;27.54;50.47;99107.75;3151410;28;20109;-66
2023/08/04 01:03:35;;;;;;;7.45;5.97;;;;;;;27.55;49.96;99097.88;3158778;28;20137;-66
2023/08/04 01:05:06;;;;;;;;;;;;;;;27.34;50.21;99104.91;3154335;28;20060;-66
2023/08/04 01:06:48;;;;;;;9.45;6.18;;;;;;;27.41;50.53;99104.97;3158305;28;19963;-66
2023/08/04 01:08:24;;;;;;;9.63;6.05;;;;;;;27.40;50.67;99101.47;3158162;28;20058;-66
2023/08/04 01:10:07;;;;;;;8.68;5.97;;;;;;;27.41;50.53;99099.63;3158034;28;20044;-66
2023/08/04 01:11:46;;;;;;;6.82;5.38;;;;;;;27.38;50.51;99108.03;3157818;28;20098;-65
2023/08/04 01:13:21;;;;;;;8.00;5.82;;;;;;;27.37;50.56;99107.22;3158011;28;20052;-67
2023/08/04 01:14:57;;;;;;;8.82;5.80;;;;;;;27.39;50.70;99113.19;3158108;28;20134;-66
2023/08/04 01:16:28;;;;;;;8.02;6.00;;;;;;;27.41;50.71;99115.66;3155243;28;20056;-66
2023/08/04 01:18:00;;;;;;;6.75;5.68;;;;;;;27.40;50.58;99117.50;3158012;28;20047;-66
2023/08/04 01:19:31;;;;;;;11.60;5.40;;;;;;;27.40;50.39;99114.84;3152345;28;20055;-66
2023/08/04 01:21:05;;;;;;;7.03;5.45;;;;;;;27.39;50.95;99115.88;3147471;28;20071;-66
2023/08/04 01:22:36;;;;;;;9.07;5.55;;;;;;;27.38;50.44;99119.53;3158082;28;20048;-66
2023/08/04 01:24:08;;;;;;;6.82;5.63;;;;;;;27.38;50.99;99119.53;3148278;28;20056;-66
2023/08/04 01:25:39;;;;;;;11.70;5.75;;;;;;;27.36;50.59;99124.28;3145277;28;20445;-66
2023/08/04 01:27:14;;;;;;;8.60;6.32;;;;;;;27.35;51.05;99121.78;3158321;28;20051;-67
2023/08/04 01:28:46;;;;;;;7.78;6.32;;;;;;;27.32;50.80;99124.84;3158221;28;20139;-66
2023/08/04 01:30:20;;;;;;;10.23;5.70;;;;;;;27.30;50.72;99122.38;3149308;28;20051;-67
2023/08/04 01:31:51;;;;;;;9.88;6.18;;;;;;;27.26;51.28;99120.28;3156348;28;20044;-66
2023/08/04 01:33:23;;;;;;;8.80;6.53;;;;;;;27.26;50.83;99129.13;3157075;28;20094;-66
2023/08/04 01:34:55;;;;;;;8.77;6.13;;;;;;;27.24;51.28;99128.47;3146669;28;20045;-66
2023/08/04 01:36:28;;;;;;;10.40;5.43;;;;;;;27.23;51.10;99127.66;3158077;28;20059;-66
2023/08/04 01:37:59;;;;;;;10.63;5.70;;;;;;;27.20;51.47;99132.56;3155189;28;20048;-66
2023/08/04 01:39:30;;;;;;;7.85;5.68;;;;;;;27.20;51.48;99127.22;3147769;28;20443;-66
2023/08/04 01:41:05;;;;;;;10.02;6.30;;;;;;;27.18;51.29;99132.78;3158370;28;20055;-66
2023/08/04 01:42:36;;;;;;;10.88;6.05;;;;;;;27.17;51.49;99131.09;3157590;28;20043;-65
2023/08/04 01:44:08;;;;;;;8.65;5.85;;;;;;;27.13;51.41;99134.34;3152901;28;20159;-65
2023/08/04 01:45:40;;;;;;;7.97;5.97;;;;;;;27.11;51.36;99131.84;3154532;28;20043;-66
2023/08/04 01:47:10;;;;;;;9.32;6.35;;;;;;;27.08;51.24;99140.25;3141131;28;20055;-65
2023/08/04 01:48:42;;;;;;;10.07;6.15;;;;;;;27.06;51.56;99138.78;3153666;28;20052;-65
2023/08/04 01:50:13;;;;;;;8.90;6.05;;;;;;;27.01;51.45;99139.38;3157897;28;20528;-66
2023/08/04 01:51:46;;;;;;;11.93;6.10;;;;;;;27.00;51.38;99143.03;3153734;28;20388;-65
2023/08/04 01:53:17;;;;;;;10.98;6.38;;;;;;;26.93;51.62;99142.97;3150223;28;20053;-65
2023/08/04 01:54:49;;;;;;;7.38;5.70;;;;;;;26.91;51.74;99142.34;3157821;28;20188;-66
2023/08/04 01:56:20;;;;;;;7.07;5.82;;;;;;;26.91;52.05;99141.53;3157609;28;20055;-66
2023/08/04 01:57:51;;;;;;;11.90;6.30;;;;;;;26.90;51.99;99146.03;3157960;28;20054;-65
2023/08/04 01:59:22;;;;;;;12.85;6.50;;;;;;;26.91;52.21;99149.53;3157988;28;20047;-66
2023/08/04 02:00:54;;;;;;;10.93;6.22;;;;;;;26.86;51.80;99150.13;3151089;28;20041;-66
2023/08/04 02:02:25;;;;;;;10.10;5.97;;;;;;;26.81;52.34;99152.53;3150265;28;20059;-64
2023/08/04 02:03:59;;;;;;;8.43;6.20;;;;;;;26.80;51.90;99150.03;3145379;28;20520;-65
2023/08/04 02:05:30;;;;;;;8.85;6.25;;;;;;;26.72;52.67;99161.69;3152421;28;20119;-65
2023/08/04 02:07:03;;;;;;;10.07;6.20;;;;;;;26.70;52.45;99159.19;3157671;28;20056;-64
2023/08/04 02:08:34;;;;;;;;;;;;;;;26.47;52.99;99161.16;3157466;28;20044;-64
2023/08/04 02:10:07;;;;;;;12.18;7.10;;;;;;;26.53;53.09;99163.09;3157381;28;19923;-65
2023/08/04 02:11:38;;;;;;;14.00;6.20;;;;;;;26.53;52.81;99158.59;3157463;28;20048;-64
2023/08/04 02:13:09;;;;;;;13.77;6.82;;;;;;;26.53;53.40;99163.09;3157568;28;20120;-65
2023/08/04 02:14:40;;;;;;;11.52;6.57;;;;;;;26.53;52.76;99166.63;3157278;28;20051;-65
2023/08/04 02:16:12;;;;;;;9.70;6.50;;;;;;;26.54;53.07;99162.91;3153803;28;20055;-65
2023/08/04 02:17:44;;;;;;;11.02;6.70;;;;;;;26.57;52.90;99160.91;3152344;28;20056;-65
2023/08/04 02:19:15;;;;;;;11.05;6.80;;;;;;;26.57;53.23;99167.06;3157849;28;20080;-65
2023/08/04 02:20:46;;;;;;;9.57;6.03;;;;;;;26.58;53.28;99162.53;3155727;28;20081;-65
2023/08/04 02:22:19;;;;;;;9.73;6.68;;;;;;;26.63;53.05;99170.81;3157183;28;20064;-64
2023/08/04 02:23:50;;;;;;;9.52;5.80;;;;;;;26.61;52.91;99168.31;3140795;28;20044;-65
2023/08/04 02:25:22;;;;;;;8.65;5.70;;;;;;;26.61;52.99;99172.84;3155957;28;20056;-65
2023/08/04 02:26:53;;;;;;;9.02;6.30;;;;;;;26.58;53.10;99174.03;3154652;28;20113;-65
2023/08/04 02:28:25;;;;;;;10.77;6.80;;;;;;;26.58;53.46;99176.72;3150093;28;20052;-65
2023/08/04 02:29:57;;;;;;;13.93;6.50;;;;;;;26.58;53.36;99175.91;3157526;28;20051;-65
2023/08/04 02:31:29;;;;;;;12.95;6.95;;;;;;;26.58;53.11;99175.91;3157235;28;20048;-65
2023/08/04 02:33:00;;;;;;;13.07;7.13;;;;;;;26.54;53.42;99181.63;3148844;28;20151;-65
2023/08/04 02:34:31;;;;;;;13.48;6.75;;;;;;;26.54;53.57;99180.78;3157218;28;20367;-65
2023/08/04 02:36:04;;;;;;;8.68;6.68;;;;;;;26.47;53.46;99174.50;3154577;28;20048;-65
2023/08/04 02:37:37;;;;;;;11.00;6.28;;;;;;;26.47;53.72;99179.84;3157615;28;20123;-64
2023/08/04 02:39:08;;;;;;;;;;;;;;;26.30;53.63;99176.56;3150897;28;20059;-64
2023/08/04 02:40:39;;;;;;;11.90;6.43;;;;;;;26.39;53.59;99185.31;3156958;28;19920;-64
2023/08/04 02:42:10;;;;;;;10.27;6.35;;;;;;;26.44;53.46;99178.34;3157343;28;20483;-64
2023/08/04 02:43:42;;;;;;;11.45;5.88;;;;;;;26.45;53.57;99177.38;3151984;28;20109;-64
2023/08/04 02:45:14;;;;;;;13.23;7.00;;;;;;;26.47;53.64;99177.16;3157042;28;20083;-64
2023/08/04 02:46:45;;;;;;;12.70;6.75;;;;;;;26.46;53.71;99178.19;3139950;28;20048;-64
2023/08/04 02:48:17;;;;;;;8.93;6.00;;;;;;;26.44;53.66;99183.69;3148195;28;20105;-64
2023/08/04 02:49:47;;;;;;;11.27;6.55;;;;;;;26.45;53.24;99181.88;3157564;28;20758;-64
2023/08/04 02:51:19;;;;;;;11.07;6.50;;;;;;;26.46;53.60;99184.34;3156816;28;20040;-64
2023/08/04 02:52:51;;;;;;;10.68;5.88;;;;;;;26.44;53.42;99186.38;3154367;28;20071;-64
2023/08/04 02:54:24;;;;;;;11.80;6.90;;;;;;;26.40;53.82;99193.09;3150880;28;20051;-64
2023/08/04 02:55:54;;;;;;;10.50;6.85;;;;;;;26.35;53.85;99194.69;3157368;28;20048;-64
2023/08/04 02:57:30;;;;;;;10.80;6.72;;;;;;;26.37;53.84;99190.00;3157068;28;20130;-64
2023/08/04 02:59:01;;;;;;;13.02;7.05;;;;;;;26.36;53.73;99196.34;3157550;28;20083;-64
2023/08/04 03:00:33;;;;;;;13.38;6.90;;;;;;;26.37;53.54;99193.47;3153758;28;20409;-64
2023/08/04 03:02:04;;;;;;;11.90;5.82;;;;;;;26.38;53.73;99195.13;3141458;28;20052;-64
2023/08/04 03:03:36;;;;;;;11.57;6.63;;;;;;;26.39;53.96;99194.13;3144542;28;20045;-64
2023/08/04 03:05:08;;;;;;;13.60;7.68;;;;;;;26.41;53.96;99200.09;3156277;28;20129;-65
2023/08/04 03:06:39;;;;;;;12.83;6.97;;;;;;;26.40;53.79;99198.44;3156792;28;20048;-65
2023/08/04 03:08:12;;;;;;;10.93;6.93;;;;;;;26.41;53.83;99199.25;3155753;28;20052;-65
2023/08/04 03:09:43;;;;;;;;;;;;;;;26.21;54.00;99191.03;3157308;28;20120;-65
2023/08/04 03:11:15;;;;;;;10.05;5.95;;;;;;;26.25;54.07;99192.31;3157232;28;20002;-65
2023/08/04 03:12:46;;;;;;;8.77;6.95;;;;;;;26.27;53.67;99199.13;3149918;28;20045;-65
2023/08/04 03:14:18;;;;;;;11.02;7.25;;;;;;;26.26;53.59;99193.94;3157144;28;20096;-65
2023/08/04 03:15:54;;;;;;;10.13;7.18;;;;;;;26.30;53.99;99205.94;3153206;28;20102;-64
2023/08/04 03:17:28;;;;;;;10.38;7.28;;;;;;;26.29;53.76;99204.25;3149899;28;20052;-66
2023/08/04 03:18:59;;;;;;;16.83;6.82;;;;;;;26.29;54.16;99201.59;3157079;28;20056;-66
2023/08/04 03:20:37;;;;;;;18.63;6.85;;;;;;;26.27;53.68;99206.28;3156759;28;20084;-66
2023/08/04 03:22:08;;;;;;;15.10;7.15;;;;;;;26.24;53.97;99204.00;3156789;28;20071;-67
2023/08/04 03:23:41;;;;;;;13.20;6.15;;;;;;;26.23;54.11;99208.47;3149177;28;20048;-67
2023/08/04 03:25:12;;;;;;;13.82;7.78;;;;;;;26.21;53.98;99209.72;3144943;28;20071;-66
2023/08/04 03:26:43;;;;;;;12.40;7.22;;;;;;;26.19;54.14;99211.72;3152480;28;20048;-67
2023/08/04 03:28:14;;;;;;;16.67;7.50;;;;;;;26.18;54.17;99212.75;3156804;28;20044;-67
2023/08/04 03:29:47;;;;;;;9.55;6.18;;;;;;;26.18;54.35;99205.56;3157239;28;20048;-67
2023/08/04 03:31:18;;;;;;;13.48;6.75;;;;;;;26.19;54.15;99209.88;3153281;28;20062;-67
2023/08/04 03:32:49;;;;;;;14.45;6.93;;;;;;;26.21;54.58;99212.38;3158422;28;20126;-67
2023/08/04 03:34:20;;;;;;;12.05;6.95;;;;;;;26.21;54.26;99207.84;3159301;28;20478;-67
2023/08/04 03:35:52;;;;;;;11.82;7.47;;;;;;;26.24;54.01;99214.69;3159489;28;20096;-67
2023/08/04 03:37:24;;;;;;;10.50;6.97;;;;;;;26.23;54.03;99213.00;3159146;28;20051;-67
2023/08/04 03:38:56;;;;;;;13.48;6.82;;;;;;;26.25;53.96;99219.00;3144876;28;20502;-67
2023/08/04 03:40:28;;;;;;;12.85;7.10;;;;;;;26.26;54.08;99217.97;3159211;28;20542;-67
2023/08/04 03:41:58;;;;;;;10.27;6.72;;;;;;;26.24;54.12;99225.34;3159071;28;20449;-68
2023/08/04 03:43:30;;;;;;;12.07;7.25;;;;;;;26.17;54.21;99216.41;3154409;28;20054;-67
2023/08/04 03:45:02;;;;;;;14.93;8.00;;;;;;;26.19;54.15;99217.88;3156019;28;20040;-67
2023/08/04 03:46:33;;;;;;;14.25;7.57;;;;;;;26.17;54.23;99216.41;3139810;28;20045;-67
2023/08/04 03:48:04;;;;;;;9.13;6.63;;;;;;;26.16;54.43;99225.44;3155785;28;20545;-67
2023/08/04 03:49:36;;;;;;;12.15;7.00;;;;;;;26.12;54.73;99229.47;3158939;28;20044;-67
2023/08/04 03:51:07;;;;;;;10.77;6.78;;;;;;;26.11;54.33;99228.63;3159215;28;20067;-67
2023/08/04 03:52:39;;;;;;;16.02;8.00;;;;;;;26.10;54.44;99230.47;3155684;28;20444;-66
2023/08/04 03:54:12;;;;;;;15.63;7.45;;;;;;;26.07;54.48;99228.19;3151131;28;20440;-67
2023/08/04 03:55:44;;;;;;;;;;;;;;;25.90;54.99;99223.19;3159511;28;20048;-66
2023/08/04 03:57:14;;;;;;;11.65;7.07;;;;;;;25.98;54.57;99231.94;3159322;28;20723;-67
2023/08/04 03:58:46;;;;;;;12.15;7.07;;;;;;;26.04;54.91;99235.72;3159154;28;20068;-67
2023/08/04 04:00:17;;;;;;;15.57;7.20;;;;;;;26.05;54.90;99232.88;3152776;28;20153;-67
2023/08/04 04:01:49;;;;;;;15.70;7.53;;;;;;;26.04;55.01;99231.22;3149543;28;20081;-67
2023/08/04 04:03:20;;;;;;;11.50;7.38;;;;;;;26.09;54.63;99233.34;3159086;28;20055;-67
2023/08/04 04:04:51;;;;;;;15.43;6.85;;;;;;;26.10;54.44;99232.31;3159093;28;20054;-67
2023/08/04 04:06:22;;;;;;;12.43;7.20;;;;;;;26.08;54.77;99231.69;3159218;28;20048;-67
2023/08/04 04:07:54;;;;;;;13.65;7.53;;;;;;;26.05;55.00;99235.53;3158097;28;20055;-67
2023/08/04 04:09:26;;;;;;;11.75;7.78;;;;;;;26.04;54.98;99236.56;3148070;28;20143;-67
2023/08/04 04:10:58;;;;;;;11.10;6.57;;;;;;;26.00;55.17;99229.94;3158583;28;20058;-67
2023/08/04 04:12:29;;;;;;;13.55;7.45;;;;;;;26.01;54.77;99231.59;3157647;28;20055;-67
2023/08/04 04:14:01;;;;;;;11.90;7.45;;;;;;;26.01;54.95;99239.59;3157468;28;20511;-67
2023/08/04 04:15:32;;;;;;;10.73;6.47;;;;;;;26.03;55.19;99234.91;3156042;28;20051;-67
2023/08/04 04:17:04;;;;;;;10.35;6.75;;;;;;;26.04;54.95;99235.72;3155762;28;20055;-67
2023/08/04 04:18:36;;;;;;;13.57;7.40;;;;;;;26.05;55.10;99237.38;3158510;28;20047;-67
2023/08/04 04:20:07;;;;;;;14.18;6.90;;;;;;;26.05;54.90;99238.19;3157479;28;20067;-67
2023/08/04 04:21:39;;;;;;;13.68;7.18;;;;;;;26.04;54.91;99231.22;3158431;28;20040;-67
2023/08/04 04:23:11;;;;;;;10.65;6.55;;;;;;;26.07;55.00;99240.69;3152737;28;20057;-66
2023/08/04 04:24:43;;;;;;;12.68;6.85;;;;;;;26.08;54.61;99237.84;3146463;28;20106;-67
2023/08/04 04:26:15;;;;;;;15.25;7.55;;;;;;;26.09;54.64;99239.50;3158108;28;20394;-67
2023/08/04 04:27:46;;;;;;;16.75;7.38;;;;;;;26.10;54.86;99246.50;3158628;28;20058;-65
2023/08/04 04:29:18;;;;;;;18.17;7.00;;;;;;;26.06;55.08;99237.22;3151248;28;20048;-65
2023/08/04 04:30:49;;;;;;;14.60;7.43;;;;;;;26.06;55.00;99242.53;3153536;28;20113;-65
2023/08/04 04:32:21;;;;;;;15.60;7.38;;;;;;;26.04;55.28;99241.06;3147239;28;20060;-66
2023/08/04 04:33:53;;;;;;;12.85;7.53;;;;;;;26.05;55.05;99237.38;3158770;28;20052;-65
2023/08/04 04:35:24;;;;;;;16.13;7.47;;;;;;;26.08;54.71;99239.69;3158842;28;20445;-64
2023/08/04 04:36:59;;;;;;;14.85;7.40;;;;;;;26.13;54.66;99244.47;3157848;28;20047;-63
2023/08/04 04:38:30;;;;;;;14.98;8.77;;;;;;;26.12;55.01;99243.66;3156224;28;20187;-64
2023/08/04 04:40:04;;;;;;;18.05;8.13;;;;;;;26.15;54.58;99245.09;3158521;28;20134;-63
2023/08/04 04:41:36;;;;;;;62.95;34.53;;;;;;;26.17;54.78;99246.59;3158564;28;20105;-62
2023/08/04 04:43:08;;;;;;;15.43;8.60;;;;;;;26.18;54.77;99252.78;3156703;28;20105;-63
2023/08/04 04:44:40;;;;;;;10.50;7.20;;;;;;;26.19;54.74;99249.09;3147641;28;20107;-62
2023/08/04 04:46:10;;;;;;;65.45;44.03;;;;;;;26.20;54.74;99248.06;3150102;28;20506;-62
2023/08/04 04:47:42;;;;;;;20.85;11.02;;;;;;;26.20;54.62;99251.56;3158600;28;20199;-64
2023/08/04 04:49:14;;;;;;;18.20;10.18;;;;;;;26.22;54.66;99252.22;3158396;28;20052;-63
2023/08/04 04:50:46;;;;;;;10.02;8.07;;;;;;;26.26;54.53;99253.50;3158671;28;20558;-63
2023/08/04 04:52:29;;;;;;;13.00;8.00;;;;;;;26.29;54.28;99252.28;3154720;28;20052;-62
2023/08/04 04:54:01;;;;;;;10.00;6.95;;;;;;;26.29;54.40;99262.97;3151086;28;20105;-65
2023/08/04 04:55:33;;;;;;;16.13;7.40;;;;;;;26.32;54.49;99263.47;3150620;28;20443;-65
2023/08/04 04:57:06;;;;;;;9.45;7.07;;;;;;;26.28;53.90;99261.31;3135485;28;20053;-65
2023/08/04 04:58:38;;;;;;;11.60;7.60;;;;;;;26.25;54.36;99265.19;3156491;28;20063;-65
2023/08/04 05:00:11;;;;;;;8.48;7.07;;;;;;;26.22;54.00;99260.22;3144079;28;20139;-63
2023/08/04 05:01:43;;;;;;;13.38;6.93;;;;;;;26.22;54.00;99256.72;3148885;28;20037;-62
2023/08/04 05:03:15;;;;;;;13.30;6.88;;;;;;;26.23;54.33;99261.03;3155905;28;20580;-63
2023/08/04 05:04:47;;;;;;;16.20;7.30;;;;;;;26.21;54.17;99258.56;3154424;28;21250;-63
2023/08/04 05:06:19;;;;;;;12.65;7.53;;;;;;;26.26;54.12;99260.66;3152521;28;20044;-64
2023/08/04 05:07:51;;;;;;;11.63;7.00;;;;;;;26.30;54.10;99260.13;3157331;28;20083;-64
2023/08/04 05:09:23;;;;;;;11.60;7.15;;;;;;;26.38;53.94;99266.38;3150175;28;20741;-64
2023/08/04 05:10:58;;;;;;;10.82;6.78;;;;;;;26.44;53.79;99263.78;3158079;28;20054;-63
2023/08/04 05:12:30;;;;;;;11.82;7.45;;;;;;;26.48;53.85;99270.44;3150676;28;20475;-64
2023/08/04 05:14:01;;;;;;;12.73;6.85;;;;;;;26.55;53.66;99262.53;3150154;28;20055;-63
2023/08/04 05:15:33;;;;;;;12.50;6.95;;;;;;;26.59;53.50;99266.50;3155930;28;20052;-64
2023/08/04 05:17:05;;;;;;;11.13;7.20;;;;;;;26.60;53.30;99272.69;3147842;28;20088;-63
2023/08/04 05:18:36;;;;;;;13.65;7.05;;;;;;;26.61;52.86;99263.66;3157575;28;20102;-63
2023/08/04 05:20:09;;;;;;;10.02;7.55;;;;;;;26.63;53.18;99267.78;3146000;28;20548;-64
2023/08/04 05:21:41;;;;;;;;;;;;;;;26.48;52.98;99266.94;3145653;28;20051;-63
2023/08/04 05:23:12;;;;;;;16.20;6.95;;;;;;;26.54;53.07;99268.91;3151552;28;20387;-62
2023/08/04 05:24:44;;;;;;;12.85;7.15;;;;;;;26.61;52.95;99269.81;3149083;28;20047;-63
2023/08/04 05:26:16;;;;;;;11.98;7.72;;;;;;;26.70;52.43;99268.69;3156233;28;20133;-64
2023/08/04 05:27:50;;;;;;;20.88;8.00;;;;;;;26.75;52.40;99273.50;3156949;28;20048;-65
2023/08/04 05:29:21;;;;;;;16.23;8.18;;;;;;;26.80;52.68;99273.75;3149282;28;20044;-66
2023/08/04 05:30:56;;;;;;;16.27;7.72;;;;;;;26.88;52.72;99275.47;3157931;28;20059;-67
2023/08/04 05:32:27;;;;;;;14.05;7.50;;;;;;;26.90;52.50;99271.63;3157838;28;20589;-67
2023/08/04 05:34:00;;;;;;;11.73;7.45;;;;;;;26.93;52.54;99273.09;3157198;28;20162;-68
2023/08/04 05:35:31;;;;;;;15.90;7.47;;;;;;;26.98;52.35;99270.69;3157016;28;20044;-66
2023/08/04 05:37:07;;;;;;;14.98;7.95;;;;;;;27.05;52.35;99271.56;3156930;28;20051;-65
2023/08/04 05:38:37;;;;;;;9.55;7.18;;;;;;;27.08;52.41;99273.03;3143423;28;20049;-66
2023/08/04 05:40:10;;;;;;;13.95;7.22;;;;;;;27.16;51.89;99272.97;3152835;28;20044;-67
2023/08/04 05:41:44;;;;;;;16.63;6.97;;;;;;;27.22;51.61;99274.88;3156636;28;20044;-67
2023/08/04 05:43:16;;;;;;;13.18;7.55;;;;;;;27.25;51.49;99269.16;3153892;28;20590;-64
2023/08/04 05:44:47;;;;;;;12.90;6.90;;;;;;;27.31;51.23;99270.25;3145151;28;20087;-68
2023/08/04 05:46:19;;;;;;;13.90;6.97;;;;;;;27.43;51.41;99268.72;3140515;28;20517;-66
2023/08/04 05:47:50;;;;;;;13.13;6.97;;;;;;;27.53;51.17;99268.38;3150055;28;20576;-67
2023/08/04 05:49:22;;;;;;;24.35;16.30;;;;;;;27.58;50.68;99264.13;3158168;28;20052;-68
2023/08/04 05:50:55;;;;;;;12.90;6.65;;;;;;;27.63;50.26;99267.06;3158044;28;20039;-68
2023/08/04 05:52:26;;;;;;;19.63;8.00;;;;;;;27.69;50.54;99268.13;3153927;28;20040;-68
2023/08/04 05:53:58;;;;;;;27.92;17.92;;;;;;;27.76;49.80;99260.16;3150579;28;20058;-67
2023/08/04 05:55:29;;;;;;;11.55;7.78;;;;;;;27.83;49.80;99266.41;3156961;28;20070;-64
2023/08/04 05:57:03;;;;;;;14.07;7.45;;;;;;;27.89;49.85;99265.63;3157762;28;20040;-62
2023/08/04 05:58:35;;;;;;;13.73;6.60;;;;;;;27.98;49.62;99266.31;3153604;28;20043;-66
2023/08/04 06:00:07;;;;;;;11.68;6.60;;;;;;;28.11;49.29;99267.25;3157952;28;20084;-67
2023/08/04 06:01:39;;;;;;;14.03;6.53;;;;;;;28.22;49.28;99265.88;3146847;28;20098;-68
2023/08/04 06:03:10;;;;;;;10.65;6.68;;;;;;;28.33;48.99;99269.84;3157969;28;20312;-65
2023/08/04 06:04:42;;;;;;;11.50;7.30;;;;;;;28.40;48.61;99272.59;3157143;28;20086;-67
2023/08/04 06:06:14;;;;;;;15.80;6.93;;;;;;;28.47;48.53;99268.09;3157719;28;20077;-66
2023/08/04 06:07:47;;;;;;;11.02;6.97;;;;;;;28.55;48.29;99274.13;3158052;28;20063;-65
2023/08/04 06:09:19;;;;;;;16.77;6.60;;;;;;;28.67;47.90;99266.34;3137622;28;20054;-64
2023/08/04 06:10:51;;;;;;;14.43;6.70;;;;;;;28.78;47.79;99267.63;3156733;28;20044;-69
2023/08/04 06:12:24;;;;;;;13.43;6.28;;;;;;;28.83;47.46;99275.88;3149580;28;20049;-67
2023/08/04 06:13:55;;;;;;;12.68;6.65;;;;;;;28.82;47.44;99276.94;3152962;28;20048;-67
2023/08/04 06:15:27;;;;;;;10.75;7.07;;;;;;;28.83;47.22;99269.72;3157598;28;20135;-67
2023/08/04 06:16:58;;;;;;;13.77;6.88;;;;;;;28.86;46.88;99269.31;3139568;28;20132;-73
2023/08/04 06:18:30;;;;;;;15.45;6.50;;;;;;;28.85;46.67;99271.16;3152625;28;20044;-69
2023/08/04 06:20:02;;;;;;;10.63;6.70;;;;;;;28.88;46.53;99269.94;3150701;28;20101;-69
2023/08/04 06:21:35;;;;;;;11.40;6.18;;;;;;;29.00;46.05;99276.38;3157132;28;20553;-69
2023/08/04 06:23:08;;;;;;;12.90;5.93;;;;;;;29.10;45.81;99271.47;3151984;28;20056;-67
2023/08/04 06:24:40;;;;;;;15.88;5.90;;;;;;;29.17;45.68;99266.16;3142005;28;20059;-70
2023/08/04 06:26:12;;;;;;;9.60;5.57;;;;;;;29.25;45.59;99272.16;3157092;28;20044;-72
2023/08/04 06:27:44;;;;;;;11.93;6.18;;;;;;;29.37;45.35;99274.22;3149478;28;20044;-70
2023/08/04 06:29:16;;;;;;;11.75;6.38;;;;;;;29.43;45.31;99276.06;3157174;28;20058;-70
2023/08/04 06:30:48;;;;;;;8.88;6.57;;;;;;;29.52;44.99;99274.88;3134069;28;20057;-69
2023/08/04 06:32:19;;;;;;;9.10;6.40;;;;;;;29.64;44.54;99278.63;3142726;28;20048;-70
2023/08/04 06:33:51;;;;;;;11.57;5.82;;;;;;;29.72;44.41;99269.53;3132375;28;20044;-69
2023/08/04 06:35:23;;;;;;;12.85;6.25;;;;;;;29.80;44.32;99268.50;3155679;28;20059;-70
2023/08/04 06:36:54;;;;;;;12.48;7.10;;;;;;;29.86;44.16;99275.72;3157470;28;20125;-69
2023/08/04 06:38:26;;;;;;;10.88;5.43;;;;;;;29.94;43.95;99264.78;3147278;28;20128;-69
2023/08/04 06:39:57;;;;;;;8.65;5.22;;;;;;;30.04;44.01;99273.22;3152031;28;20052;-69
2023/08/04 06:41:30;;;;;;;14.20;6.43;;;;;;;30.15;43.98;99267.22;3157192;28;20524;-69
2023/08/04 06:43:02;;;;;;;9.40;5.97;;;;;;;30.26;43.65;99267.63;3141002;28;20048;-70
2023/08/04 06:44:34;;;;;;;8.52;5.78;;;;;;;30.32;43.54;99262.28;3152084;28;20459;-71
2023/08/04 06:46:06;;;;;;;11.15;6.35;;;;;;;30.43;43.40;99268.84;3151648;28;20048;-71
2023/08/04 06:47:38;;;;;;;7.38;5.47;;;;;;;30.51;43.00;99265.94;3151084;28;20440;-71
2023/08/04 06:49:10;;;;;;;13.75;5.68;;;;;;;30.62;43.08;99266.31;3153192;28;20137;-70
2023/08/04 06:50:42;;;;;;;11.45;6.18;;;;;;;30.69;42.79;99261.72;3144828;28;20102;-71
2023/08/04 06:52:13;;;;;;;10.75;6.95;;;;;;;30.72;42.75;99258.63;3156525;28;20048;-70
2023/08/04 06:53:45;;;;;;;9.88;6.53;;;;;;;30.76;42.59;99260.69;3150088;28;20051;-68
2023/08/04 06:55:16;;;;;;;8.85;6.00;;;;;;;30.84;42.47;99262.31;3150596;28;20051;-69
2023/08/04 06:56:48;;;;;;;7.75;5.97;;;;;;;30.89;42.06;99264.38;3153811;28;20205;-69
2023/08/04 06:58:21;;;;;;;9.43;5.43;;;;;;;30.92;42.00;99266.63;3144413;28;20056;-68
2023/08/04 06:59:52;;;;;;;8.88;6.38;;;;;;;30.96;41.46;99265.16;3145347;28;20461;-69
2023/08/04 07:01:38;;;;;;;7.03;5.82;;;;;;;30.98;40.90;99269.28;3144595;28;20056;-70
2023/08/04 07:03:17;;;;;;;12.55;5.78;;;;;;;30.95;40.68;99258.97;3156392;28;20044;-69
2023/08/04 07:05:26;;;;;;;9.50;6.00;;;;;;;30.91;40.92;99257.75;3156848;28;20105;-70
2023/08/04 07:06:57;;;;;;;14.13;6.57;;;;;;;30.88;40.82;99250.13;3137220;28;20044;-70
2023/08/04 07:08:36;;;;;;;16.48;6.47;;;;;;;30.95;40.69;99256.28;3140011;28;20051;-69
2023/08/04 07:10:10;;;;;;;12.32;5.78;;;;;;;31.00;40.95;99251.06;3149779;28;20052;-69
2023/08/04 07:11:41;;;;;;;7.25;5.45;;;;;;;31.08;40.67;99259.91;3155390;28;20087;-70